createdAt,value
2018-08-28T00:02:12.229Z,78.24
2018-08-28T00:04:40.646Z,78.75
2018-08-28T00:07:09.051Z,78.78
2018-08-28T00:09:38.372Z,79.33
2018-08-28T00:12:07.173Z,78.47
2018-08-28T00:14:35.583Z,79.20
2018-08-28T00:17:04.193Z,78.58
2018-08-28T00:19:32.693Z,79.01
2018-08-28T00:22:01.129Z,79.09
2018-08-28T00:24:29.543Z,79.46
2018-08-28T00:26:57.939Z,78.95
2018-08-28T00:29:26.337Z,79.39
2018-08-28T00:31:54.751Z,79.92
2018-08-28T00:34:23.149Z,79.08
2018-08-28T00:36:51.577Z,79.58
2018-08-28T00:39:19.975Z,79.72
2018-08-28T00:41:48.405Z,80.00
2018-08-28T00:44:16.804Z,79.46
2018-08-28T00:46:45.196Z,79.17
2018-08-28T00:49:13.597Z,78.75
2018-08-28T00:51:42.083Z,79.52
2018-08-28T00:54:10.538Z,79.43
2018-08-28T00:56:38.981Z,79.04
2018-08-28T00:59:07.357Z,79.39
2018-08-28T01:01:35.809Z,79.52
2018-08-28T01:04:04.313Z,79.98
2018-08-28T01:06:32.694Z,80.12
2018-08-28T01:09:01.091Z,79.23
2018-08-28T01:11:29.804Z,79.44
2018-08-28T01:13:58.231Z,79.75
2018-08-28T01:16:26.690Z,79.21
2018-08-28T01:18:55.102Z,79.89
2018-08-28T01:21:23.520Z,80.10
2018-08-28T01:23:51.977Z,79.51
2018-08-28T01:26:21.710Z,79.64
2018-08-28T01:28:50.123Z,79.41
2018-08-28T01:31:18.560Z,80.31
2018-08-28T01:33:47.029Z,79.91
2018-08-28T01:36:15.414Z,80.08
2018-08-28T01:38:43.792Z,80.71
2018-08-28T01:41:12.285Z,79.93
2018-08-28T01:43:40.674Z,80.43
2018-08-28T01:46:09.101Z,81.36
2018-08-28T01:48:37.501Z,81.58
2018-08-28T01:51:06.252Z,81.59
2018-08-28T01:53:34.718Z,81.85
2018-08-28T01:56:03.618Z,81.69
2018-08-28T01:58:32.100Z,82.50
2018-08-28T02:01:00.491Z,81.99
2018-08-28T02:03:28.897Z,82.18
2018-08-28T02:05:57.288Z,83.06
2018-08-28T02:08:25.709Z,82.49
2018-08-28T02:10:54.155Z,83.04
2018-08-28T02:13:22.546Z,82.93
2018-08-28T02:15:51.004Z,83.33
2018-08-28T02:18:19.412Z,83.34
2018-08-28T02:20:47.820Z,83.60
2018-08-28T02:23:16.219Z,83.81
2018-08-28T02:25:44.684Z,83.63
2018-08-28T02:28:13.094Z,83.20
2018-08-28T02:30:41.541Z,83.61
2018-08-28T02:33:09.963Z,84.01
2018-08-28T02:35:38.354Z,83.96
2018-08-28T02:38:06.777Z,83.90
2018-08-28T02:40:35.206Z,83.59
2018-08-28T02:43:03.665Z,83.32
2018-08-28T02:45:32.222Z,83.48
2018-08-28T02:48:00.646Z,83.87
2018-08-28T02:50:29.816Z,84.14
2018-08-28T02:52:58.325Z,82.82
2018-08-28T02:55:26.742Z,83.96
2018-08-28T02:57:55.149Z,83.40
2018-08-28T03:00:23.765Z,83.75
2018-08-28T03:02:52.210Z,83.65
2018-08-28T03:05:20.654Z,84.72
2018-08-28T03:07:49.052Z,84.06
2018-08-28T03:10:17.471Z,83.83
2018-08-28T03:12:45.916Z,83.91
2018-08-28T03:15:14.298Z,83.93
2018-08-28T03:17:42.684Z,84.76
2018-08-28T03:20:11.063Z,84.14
2018-08-28T03:22:39.484Z,84.23
2018-08-28T03:25:08.099Z,84.44
2018-08-28T03:27:36.519Z,84.13
2018-08-28T03:30:05.034Z,84.64
2018-08-28T03:32:33.448Z,84.64
2018-08-28T03:35:02.431Z,84.73
2018-08-28T03:37:30.816Z,84.27
2018-08-28T03:39:59.232Z,84.35
2018-08-28T03:42:27.698Z,84.01
2018-08-28T03:44:56.060Z,83.96
2018-08-28T03:47:25.302Z,84.53
2018-08-28T03:49:53.747Z,84.29
2018-08-28T03:52:22.092Z,84.90
2018-08-28T03:54:50.604Z,84.27
2018-08-28T03:57:18.973Z,85.51
2018-08-28T03:59:48.301Z,85.34
2018-08-28T04:02:16.736Z,85.73
2018-08-28T04:04:45.128Z,84.93
2018-08-28T04:07:13.524Z,85.32
2018-08-28T04:09:41.928Z,84.95
2018-08-28T04:12:11.027Z,85.64
2018-08-28T04:14:39.473Z,85.23
2018-08-28T04:17:07.917Z,84.49
2018-08-28T04:19:37.104Z,84.29
2018-08-28T04:22:06.164Z,85.19
2018-08-28T04:24:34.593Z,84.49
2018-08-28T04:27:03.032Z,85.22
2018-08-28T04:29:31.464Z,84.61
2018-08-28T04:31:59.867Z,84.58
2018-08-28T04:34:28.313Z,84.94
2018-08-28T04:36:56.720Z,85.21
2018-08-28T04:39:25.151Z,85.33
2018-08-28T04:41:53.602Z,84.88
2018-08-28T04:44:22.007Z,85.51
2018-08-28T04:46:50.360Z,85.26
2018-08-28T04:49:18.793Z,85.76
2018-08-28T04:51:47.288Z,85.77
2018-08-28T04:54:15.701Z,84.77
2018-08-28T04:56:44.099Z,85.97
2018-08-28T04:59:12.471Z,85.91
2018-08-28T05:01:40.848Z,85.33
2018-08-28T05:04:09.304Z,85.10
2018-08-28T05:06:37.707Z,84.98
2018-08-28T05:09:07.070Z,85.14
2018-08-28T05:11:35.906Z,85.12
2018-08-28T05:14:04.302Z,85.85
2018-08-28T05:16:32.688Z,85.16
2018-08-28T05:19:01.204Z,85.61
2018-08-28T05:21:29.671Z,84.96
2018-08-28T05:23:58.073Z,85.05
2018-08-28T05:26:26.474Z,85.85
2018-08-28T05:28:54.855Z,85.99
2018-08-28T05:31:23.299Z,85.70
2018-08-28T05:33:51.668Z,86.28
2018-08-28T05:36:20.110Z,86.28
2018-08-28T05:38:48.526Z,85.95
2018-08-28T05:41:17.040Z,85.68
2018-08-28T05:43:45.416Z,85.75
2018-08-28T05:46:14.420Z,86.58
2018-08-28T05:48:42.797Z,86.52
2018-08-28T05:51:11.244Z,86.31
2018-08-28T05:53:39.659Z,85.67
2018-08-28T05:56:08.926Z,86.39
2018-08-28T05:58:37.332Z,85.94
2018-08-28T06:01:05.781Z,86.57
2018-08-28T06:03:34.661Z,86.80
2018-08-28T06:06:02.936Z,86.71
2018-08-28T06:08:31.414Z,86.88
2018-08-28T06:10:59.949Z,86.39
2018-08-28T06:13:28.460Z,86.14
2018-08-28T06:15:56.910Z,86.27
2018-08-28T06:18:25.335Z,86.05
2018-08-28T06:20:53.804Z,86.84
2018-08-28T06:23:22.220Z,86.73
2018-08-28T06:25:50.722Z,86.39
2018-08-28T06:28:19.121Z,85.86
2018-08-28T06:30:47.545Z,86.37
2018-08-28T06:33:16.065Z,85.78
2018-08-28T06:35:44.486Z,85.83
2018-08-28T06:38:12.890Z,85.81
2018-08-28T06:40:41.284Z,85.74
2018-08-28T06:43:09.676Z,85.97
2018-08-28T06:45:38.704Z,85.25
2018-08-28T06:48:07.132Z,85.70
2018-08-28T06:50:35.602Z,85.75
2018-08-28T06:53:04.074Z,84.80
2018-08-28T06:55:32.474Z,85.36
2018-08-28T06:58:00.901Z,84.80
2018-08-28T07:00:29.294Z,84.22
2018-08-28T07:02:57.775Z,84.42
2018-08-28T07:05:26.256Z,84.34
2018-08-28T07:07:54.691Z,84.77
2018-08-28T07:10:23.230Z,84.28
2018-08-28T07:12:51.616Z,84.98
2018-08-28T07:15:20.115Z,84.97
2018-08-28T07:17:48.540Z,85.01
2018-08-28T07:20:16.982Z,84.92
2018-08-28T07:22:45.374Z,84.89
2018-08-28T07:25:13.816Z,84.74
2018-08-28T07:33:43.325Z,84.24
2018-08-28T07:36:11.716Z,82.88
2018-08-28T07:38:40.131Z,82.59
2018-08-28T07:41:08.504Z,82.44
2018-08-28T07:43:36.926Z,82.64
2018-08-28T07:46:05.406Z,81.99
2018-08-28T07:48:33.791Z,82.25
2018-08-28T07:51:03.036Z,82.73
2018-08-28T07:53:31.416Z,81.92
2018-08-28T07:55:59.801Z,82.57
2018-08-28T07:58:28.228Z,82.73
2018-08-28T08:00:56.617Z,82.48
2018-08-28T08:03:25.670Z,82.01
2018-08-28T08:05:55.699Z,82.39
2018-08-28T08:08:24.156Z,81.23
2018-08-28T08:10:52.942Z,81.30
2018-08-28T08:13:21.436Z,81.49
2018-08-28T08:15:49.874Z,81.90
2018-08-28T08:18:18.261Z,82.09
2018-08-28T08:20:46.648Z,82.64
2018-08-28T08:23:15.103Z,82.00
2018-08-28T08:25:43.580Z,82.28
2018-08-28T08:28:12.287Z,81.99
2018-08-28T08:30:40.602Z,81.21
2018-08-28T08:33:09.020Z,81.21
2018-08-28T08:35:37.428Z,80.78
2018-08-28T08:38:05.904Z,80.00
2018-08-28T08:40:34.408Z,79.77
2018-08-28T08:43:02.912Z,80.50
2018-08-28T08:45:31.381Z,79.91
2018-08-28T08:47:59.767Z,80.41
2018-08-28T08:50:28.221Z,79.75
2018-08-28T08:52:56.656Z,79.10
2018-08-28T08:55:25.060Z,79.55
2018-08-28T08:57:53.497Z,79.42
2018-08-28T09:00:21.974Z,78.48
2018-08-28T09:02:50.436Z,78.70
2018-08-28T09:05:18.894Z,77.23
2018-08-28T09:07:47.293Z,77.41
2018-08-28T09:10:15.741Z,75.82
2018-08-28T09:12:44.172Z,75.47
2018-08-28T09:15:12.658Z,76.46
2018-08-28T09:17:41.080Z,76.88
2018-08-28T09:20:09.622Z,76.06
2018-08-28T09:22:38.071Z,75.67
2018-08-28T09:25:06.516Z,75.82
2018-08-28T09:27:34.975Z,74.42
2018-08-28T09:30:03.424Z,73.94
2018-08-28T09:32:31.861Z,74.16
2018-08-28T09:35:00.267Z,73.69
2018-08-28T09:37:28.746Z,73.69
2018-08-28T09:39:57.854Z,71.92
2018-08-28T09:42:26.276Z,73.35
2018-08-28T09:44:54.699Z,72.72
2018-08-28T09:47:23.135Z,71.94
2018-08-28T09:49:51.565Z,72.66
2018-08-28T09:52:20.020Z,71.83
2018-08-28T09:54:51.424Z,70.99
2018-08-28T09:57:19.928Z,72.04
2018-08-28T09:59:48.413Z,70.68
2018-08-28T10:02:16.787Z,71.06
2018-08-28T10:04:45.230Z,69.23
2018-08-28T10:07:13.586Z,69.96
2018-08-28T10:09:42.037Z,68.74
2018-08-28T10:12:10.472Z,68.94
2018-08-28T10:14:38.927Z,68.19
2018-08-28T10:17:07.348Z,68.40
2018-08-28T10:19:35.787Z,68.04
2018-08-28T10:22:04.164Z,67.72
2018-08-28T10:24:32.978Z,68.96
2018-08-28T10:27:01.412Z,68.41
2018-08-28T10:29:29.844Z,67.65
2018-08-28T10:31:58.253Z,67.52
2018-08-28T10:34:26.629Z,68.76
2018-08-28T10:36:55.077Z,69.35
2018-08-28T10:39:23.457Z,66.34
2018-08-28T10:41:51.876Z,67.39
2018-08-28T10:44:20.305Z,67.19
2018-08-28T10:46:48.877Z,65.53
2018-08-28T10:49:17.165Z,66.39
2018-08-28T10:51:45.682Z,67.00
2018-08-28T10:54:14.142Z,66.91
2018-08-28T10:56:42.535Z,65.51
2018-08-28T10:59:10.960Z,64.76
2018-08-28T11:01:39.414Z,64.70
2018-08-28T11:04:07.845Z,65.56
2018-08-28T11:06:36.262Z,62.60
2018-08-28T11:09:04.932Z,63.85
2018-08-28T11:11:34.258Z,63.05
2018-08-28T11:14:02.700Z,62.58
2018-08-28T11:16:31.444Z,64.01
2018-08-28T11:18:59.976Z,64.26
2018-08-28T11:21:28.400Z,63.37
2018-08-28T11:23:56.854Z,64.09
2018-08-28T11:26:25.301Z,62.45
2018-08-28T11:28:53.740Z,63.85
2018-08-28T11:31:22.273Z,64.28
2018-08-28T11:33:50.704Z,64.34
2018-08-28T11:36:19.213Z,62.97
2018-08-28T11:38:47.661Z,60.71
2018-08-28T11:41:16.094Z,62.13
2018-08-28T11:43:44.480Z,60.27
2018-08-28T11:46:12.888Z,59.83
2018-08-28T11:48:41.315Z,60.70
2018-08-28T12:51:02.368Z,51.25
2018-08-28T12:53:30.744Z,48.02
2018-08-28T12:55:59.806Z,47.54
2018-08-28T12:58:28.259Z,48.69
2018-08-28T13:00:56.722Z,47.08
2018-08-28T13:03:25.480Z,48.63
2018-08-28T13:05:54.140Z,47.57
2018-08-28T13:08:22.624Z,47.54
2018-08-28T13:10:51.010Z,47.46
2018-08-28T13:13:19.400Z,48.39
2018-08-28T13:15:47.847Z,45.25
2018-08-28T13:18:16.263Z,47.96
2018-08-28T13:20:44.678Z,44.70
2018-08-28T13:23:13.132Z,46.41
2018-08-28T13:25:41.602Z,46.09
2018-08-28T13:45:20.108Z,47.79
2018-08-28T13:56:37.559Z,47.83
2018-08-28T13:59:06.230Z,48.99
2018-08-28T14:01:34.709Z,47.99
2018-08-28T14:04:03.214Z,48.90
2018-08-28T14:06:31.661Z,49.14
2018-08-28T14:09:00.097Z,50.74
2018-08-28T14:11:28.501Z,50.64
2018-08-28T14:13:57.128Z,52.94
2018-08-28T14:16:25.500Z,52.49
2018-08-28T14:18:53.955Z,54.53
2018-08-28T14:21:22.380Z,53.18
2018-08-28T14:23:50.894Z,53.12
2018-08-28T14:26:19.404Z,51.74
2018-08-28T14:28:47.900Z,51.77
2018-08-28T14:31:16.334Z,53.83
2018-08-28T14:33:44.718Z,54.06
2018-08-28T14:36:13.136Z,50.82
2018-08-28T14:38:41.600Z,52.91
2018-08-28T14:41:10.089Z,52.76
2018-08-28T14:43:38.549Z,49.90
2018-08-28T14:46:07.486Z,51.15
2018-08-28T14:48:35.933Z,51.36
2018-08-28T14:51:05.332Z,51.01
2018-08-28T14:53:33.785Z,50.58
2018-08-28T14:56:02.253Z,51.53
2018-08-28T14:58:30.702Z,53.67
2018-08-28T15:00:59.129Z,52.78
2018-08-28T15:03:27.573Z,52.44
2018-08-28T15:05:56.345Z,52.92
2018-08-28T15:08:24.732Z,53.22
2018-08-28T15:10:53.128Z,53.15
2018-08-28T15:13:21.632Z,52.82
2018-08-28T15:15:50.085Z,51.21
2018-08-28T15:18:18.559Z,52.75
2018-08-28T15:20:46.937Z,51.20
2018-08-28T15:23:15.421Z,50.13
2018-08-28T15:25:43.888Z,51.59
2018-08-28T15:28:12.335Z,51.67
2018-08-28T15:30:40.752Z,50.73
2018-08-28T15:33:09.178Z,51.30
2018-08-28T15:35:37.709Z,51.04
2018-08-28T15:38:06.158Z,51.08
2018-08-28T15:40:34.572Z,50.63
2018-08-28T15:43:03.064Z,52.81
2018-08-28T15:45:31.389Z,50.06
2018-08-28T15:47:59.829Z,53.27
2018-08-28T15:50:28.262Z,52.03
2018-08-28T15:52:56.721Z,50.73
2018-08-28T15:55:25.200Z,50.01
2018-08-28T15:57:53.667Z,52.07
2018-08-28T16:00:22.068Z,53.94
2018-08-28T16:02:50.509Z,53.61
2018-08-28T16:05:18.983Z,54.24
2018-08-28T16:07:47.431Z,54.35
2018-08-28T16:10:15.910Z,54.70
2018-08-28T16:12:44.367Z,54.84
2018-08-28T16:15:12.772Z,54.57
2018-08-28T16:17:42.600Z,55.91
2018-08-28T16:20:11.071Z,51.65
2018-08-28T16:22:42.664Z,51.37
2018-08-28T16:25:11.165Z,53.34
2018-08-28T16:27:39.637Z,52.98
2018-08-28T16:30:08.172Z,51.97
2018-08-28T16:32:36.614Z,53.63
2018-08-28T16:35:05.092Z,54.23
2018-08-28T16:37:33.553Z,51.68
2018-08-28T16:40:02.564Z,51.93
2018-08-28T16:42:42.989Z,53.74
2018-08-28T16:45:11.371Z,53.05
2018-08-28T16:47:39.822Z,54.14
2018-08-28T16:50:08.316Z,54.61
2018-08-28T16:52:36.805Z,53.74
2018-08-28T16:55:05.265Z,55.59
2018-08-28T16:57:34.569Z,55.08
2018-08-28T17:00:03.193Z,54.56
2018-08-28T17:02:31.688Z,56.15
2018-08-28T17:05:00.101Z,55.98
2018-08-28T17:07:28.514Z,55.24
2018-08-28T17:09:57.365Z,55.64
2018-08-28T17:12:25.850Z,57.26
2018-08-28T17:14:54.225Z,57.52
2018-08-28T17:17:22.668Z,57.77
2018-08-28T17:19:51.283Z,57.48
2018-08-28T17:22:19.729Z,58.63
2018-08-28T17:24:48.347Z,59.14
2018-08-28T17:27:16.793Z,58.51
2018-08-28T17:29:45.202Z,58.21
2018-08-28T17:32:13.732Z,59.31
2018-08-28T17:34:42.234Z,59.58
2018-08-28T17:37:10.753Z,59.50
2018-08-28T17:39:39.091Z,60.56
2018-08-28T17:42:08.444Z,61.12
2018-08-28T17:44:36.972Z,61.26
2018-08-28T17:47:06.379Z,60.45
2018-08-28T17:49:34.776Z,61.14
2018-08-28T17:52:03.319Z,61.37
2018-08-28T17:54:32.356Z,62.09
2018-08-28T17:57:00.858Z,62.75
2018-08-28T17:59:29.254Z,63.08
2018-08-28T18:01:57.677Z,63.38
2018-08-28T18:04:26.081Z,64.44
2018-08-28T18:06:54.557Z,64.83
2018-08-28T18:09:22.970Z,64.65
2018-08-28T18:11:51.372Z,64.62
2018-08-28T18:14:19.865Z,64.58
2018-08-28T18:16:48.341Z,65.34
2018-08-28T18:19:16.743Z,64.80
2018-08-28T18:21:45.809Z,65.66
2018-08-28T18:24:14.234Z,66.51
2018-08-28T18:26:42.667Z,65.82
2018-08-28T18:29:11.128Z,66.50
2018-08-28T18:31:39.569Z,67.10
2018-08-28T18:34:07.997Z,67.28
2018-08-28T18:36:36.681Z,66.76
2018-08-28T18:39:06.372Z,66.99
2018-08-28T18:41:34.806Z,67.58
2018-08-28T18:44:03.224Z,67.96
2018-08-28T18:46:31.632Z,67.98
2018-08-28T18:49:00.094Z,68.24
2018-08-28T18:51:28.577Z,69.12
2018-08-28T18:53:57.086Z,68.31
2018-08-28T18:56:25.520Z,68.26
2018-08-28T18:58:54.948Z,69.96
2018-08-28T19:01:23.804Z,70.05
2018-08-28T19:03:52.250Z,71.07
2018-08-28T19:06:20.687Z,71.26
2018-08-28T19:08:49.395Z,70.92
2018-08-28T19:11:17.893Z,70.75
2018-08-28T19:13:46.821Z,71.08
2018-08-28T19:16:15.452Z,70.71
2018-08-28T19:18:43.853Z,70.15
2018-08-28T19:21:12.724Z,71.40
2018-08-28T19:23:41.128Z,70.99
2018-08-28T19:26:09.722Z,71.05
2018-08-28T19:28:38.148Z,71.54
2018-08-28T19:31:06.765Z,71.62
2018-08-28T19:33:36.450Z,71.35
2018-08-28T19:36:05.510Z,71.91
2018-08-28T19:38:33.944Z,71.47
2018-08-28T19:41:02.430Z,71.60
2018-08-28T19:43:30.927Z,72.17
2018-08-28T19:45:59.392Z,71.30
2018-08-28T19:48:27.824Z,72.04
2018-08-28T19:50:56.903Z,71.78
2018-08-28T19:53:25.429Z,71.16
2018-08-28T19:55:53.858Z,72.10
2018-08-28T19:58:23.188Z,71.59
2018-08-28T20:00:51.590Z,71.78
2018-08-28T20:03:20.041Z,71.57
2018-08-28T20:05:48.553Z,71.81
2018-08-28T20:08:16.958Z,72.09
2018-08-28T20:10:45.419Z,71.59
2018-08-28T20:13:13.878Z,71.73
2018-08-28T20:15:42.295Z,71.44
2018-08-28T20:18:10.789Z,71.92
2018-08-28T20:20:39.305Z,72.58
2018-08-28T20:23:07.690Z,71.46
2018-08-28T20:25:36.150Z,71.57
2018-08-28T20:28:06.088Z,70.77
2018-08-28T20:30:35.588Z,72.24
2018-08-28T20:33:04.040Z,70.45
2018-08-28T20:35:32.599Z,70.73
2018-08-28T20:38:01.002Z,71.96
2018-08-28T20:40:29.528Z,71.59
2018-08-28T20:42:57.924Z,71.84
2018-08-28T20:45:26.345Z,71.08
2018-08-28T20:47:55.055Z,71.67
2018-08-28T20:50:23.508Z,72.02
2018-08-28T20:52:52.023Z,70.86
2018-08-28T20:55:20.474Z,71.78
2018-08-28T20:57:48.924Z,71.14
2018-08-28T21:00:17.715Z,70.55
2018-08-28T21:02:46.129Z,70.48
2018-08-28T21:05:18.412Z,71.66
2018-08-28T21:07:46.862Z,71.64
2018-08-28T21:10:15.316Z,71.50
2018-08-28T21:12:43.826Z,71.84
2018-08-28T21:15:13.879Z,71.56
2018-08-28T21:17:42.408Z,71.01
2018-08-28T21:20:10.845Z,71.54
2018-08-28T21:22:39.283Z,71.17
2018-08-28T21:25:07.836Z,70.21
2018-08-28T21:27:36.322Z,71.08
2018-08-28T21:30:04.984Z,71.08
2018-08-28T21:32:36.545Z,70.96
2018-08-28T21:35:05.308Z,71.67
2018-08-28T21:37:33.973Z,71.61
2018-08-28T21:40:02.490Z,70.43
2018-08-28T21:42:30.966Z,71.32
2018-08-28T21:44:59.416Z,71.69
2018-08-28T21:47:27.857Z,71.58
2018-08-28T21:49:56.324Z,71.13
2018-08-28T21:52:25.333Z,71.77
2018-08-28T21:54:53.793Z,71.55
2018-08-28T21:57:22.303Z,71.32
2018-08-28T21:59:50.688Z,71.34
2018-08-28T22:02:19.148Z,72.38
2018-08-28T22:04:47.561Z,71.67
2018-08-28T22:07:21.379Z,73.17
2018-08-28T22:09:49.864Z,71.71
2018-08-28T22:12:18.315Z,72.29
2018-08-28T22:14:46.746Z,72.83
2018-08-28T22:17:16.059Z,72.72
2018-08-28T22:19:44.476Z,72.81
2018-08-28T22:22:12.920Z,72.36
2018-08-28T22:24:41.436Z,73.03
2018-08-28T22:27:09.853Z,72.78
2018-08-28T22:29:39.031Z,72.39
2018-08-28T22:32:07.483Z,73.24
2018-08-28T22:34:36.625Z,72.84
2018-08-28T22:37:05.468Z,72.97
2018-08-28T22:39:33.993Z,73.41
2018-08-28T22:42:02.445Z,73.23
2018-08-28T22:44:30.901Z,73.57
2018-08-28T22:46:59.369Z,74.22
2018-08-28T22:49:27.768Z,73.65
2018-08-28T22:51:56.160Z,74.24
2018-08-28T22:54:24.580Z,74.80
2018-08-28T22:56:53.050Z,74.95
2018-08-28T22:59:21.973Z,74.91
2018-08-28T23:01:50.461Z,75.58
2018-08-28T23:04:18.898Z,75.67
2018-08-28T23:06:47.323Z,75.92
2018-08-28T23:09:15.768Z,75.10
2018-08-28T23:11:44.197Z,75.39
2018-08-28T23:14:12.651Z,75.43
2018-08-28T23:16:41.089Z,76.06
2018-08-28T23:19:09.496Z,75.78
2018-08-28T23:21:37.962Z,75.79
2018-08-28T23:24:06.456Z,76.11
2018-08-28T23:26:34.901Z,75.63
2018-08-28T23:29:03.349Z,76.29
2018-08-28T23:31:31.807Z,75.39
2018-08-28T23:34:00.217Z,75.74
2018-08-28T23:36:28.664Z,76.20
2018-08-28T23:38:57.170Z,75.78
2018-08-28T23:41:25.875Z,75.69
2018-08-28T23:43:54.272Z,76.12
2018-08-28T23:46:22.836Z,75.36
2018-08-28T23:48:51.263Z,75.57
2018-08-28T23:51:19.629Z,76.56
2018-08-28T23:53:48.465Z,76.83
2018-08-28T23:56:16.924Z,77.18
2018-08-28T23:58:45.358Z,76.83
